| time (UTC) | temp C | wind direction | speed KPH | gust KPH | rain 1hr cm | rain 24hr cm | rain mn cm | humidity % | barometer mb |
| 20260901082600 | 26 | 131 | 3.2 | 6.4 | 0.00 | 0.00 | 0.00 | 63 | 1016.6 |
| 20260901081558 | 25 | 113 | 3.2 | 6.4 | 0.00 | 0.00 | 0.00 | 64 | 1016.7 |
| 20260901080555 | 26 | 208 | 1.6 | 3.2 | 0.00 | 0.00 | 0.00 | 63 | 1016.5 |
| 20260901075552 | 25 | 140 | 1.6 | 3.2 | 0.00 | 0.00 | 0.00 | 65 | 1016.7 |
| 20260901074550 | 25 | 131 | 1.6 | 6.4 | 0.00 | 0.00 | 0.00 | 65 | 1016.6 |
| 20260901073547 | 24 | 202 | 4.8 | 6.4 | 0.00 | 0.00 | 0.00 | 66 | 1016.7 |
| 20260901072545 | 24 | 220 | 0.0 | 3.2 | 0.00 | 0.00 | 0.00 | 68 | 1016.6 |
| 20260901071542 | 23 | 221 | 4.8 | 9.7 | 0.00 | 0.00 | 0.00 | 71 | 1016.5 |
| 20260901070539 | 23 | 258 | 3.2 | 6.4 | 0.00 | 0.00 | 0.00 | 72 | 1016.8 |
| 20260901065537 | 23 | 228 | 3.2 | 6.4 | 0.00 | 0.00 | 0.00 | 72 | 1016.8 |
| 20260901064534 | 23 | 235 | 1.6 | 6.4 | 0.00 | 0.00 | 0.00 | 71 | 1016.8 |
| 20260901063532 | 23 | 226 | 1.6 | 3.2 | 0.00 | 0.00 | 0.00 | 71 | 1016.7 |
| 20260901062529 | 22 | 244 | 1.6 | 3.2 | 0.00 | 0.00 | 0.00 | 72 | 1016.7 |
| 20260901061526 | 22 | 258 | 1.6 | 3.2 | 0.00 | 0.00 | 0.00 | 74 | 1016.6 |
| 20260901060524 | 21 | 267 | 1.6 | 3.2 | 0.00 | 0.00 | 0.00 | 77 | 1016.7 |
| 20260901055521 | 21 | 270 | 1.6 | 6.4 | 0.00 | 0.00 | 0.00 | 78 | 1016.4 |
| 20260901054519 | 21 | 255 | 1.6 | 3.2 | 0.00 | 0.00 | 0.00 | 79 | 1016.5 |
| 20260901053516 | 21 | 251 | 3.2 | 6.4 | 0.00 | 0.00 | 0.00 | 80 | 1016.5 |
| 20260901052614 | 20 | 227 | 4.8 | 6.4 | 0.00 | 0.00 | 0.00 | 81 | 1016.6 |
| 20260901051611 | 20 | 234 | 3.2 | 6.4 | 0.00 | 0.00 | 0.00 | 81 | 1016.4 |
| 20260901050608 | 21 | 234 | 3.2 | 6.4 | 0.00 | 0.00 | 0.00 | 81 | 1016.5 |
| 20260901045606 | 21 | 248 | 3.2 | 6.4 | 0.00 | 0.00 | 0.00 | 81 | 1016.5 |
| 20260901044603 | 21 | 243 | 3.2 | 6.4 | 0.00 | 0.00 | 0.00 | 81 | 1016.5 |
| 20260901043601 | 21 | 238 | 1.6 | 3.2 | 0.00 | 0.00 | 0.00 | 81 | 1016.5 |
| 20260901042558 | 21 | 248 | 1.6 | 3.2 | 0.00 | 0.00 | 0.00 | 81 | 1016.6 |
| 20260901041556 | 21 | 252 | 1.6 | 6.4 | 0.00 | 0.00 | 0.00 | 81 | 1016.6 |
| 20260901040553 | 21 | 242 | 0.0 | 3.2 | 0.00 | 0.00 | 0.00 | 82 | 1016.6 |
| 20260901035550 | 21 | 253 | 1.6 | 3.2 | 0.00 | 0.00 | 0.00 | 82 | 1016.5 |
| 20260901034548 | 21 | 237 | 1.6 | 3.2 | 0.00 | 0.00 | 0.00 | 82 | 1016.8 |
| 20260901033545 | 21 | 0.0 | 3.2 | 0.00 | 0.00 | 0.00 | 83 | 1016.8 | |
| 20260901032543 | 21 | 258 | 1.6 | 6.4 | 0.00 | 0.00 | 0.00 | 83 | 1016.7 |
| 20260901031540 | 21 | 240 | 1.6 | 3.2 | 0.00 | 0.00 | 0.00 | 84 | 1016.8 |
| 20260901030537 | 21 | 180 | 0.0 | 3.2 | 0.00 | 0.00 | 0.00 | 85 | 1016.8 |
| 20260901025535 | 22 | 0.0 | 3.2 | 0.00 | 0.00 | 0.00 | 85 | 1017.0 | |
| 20260901024532 | 22 | 248 | 1.6 | 3.2 | 0.00 | 0.00 | 0.00 | 85 | 1016.9 |
| 20260901023530 | 22 | 245 | 1.6 | 3.2 | 0.00 | 0.00 | 0.00 | 85 | 1017.2 |
| 20260901022527 | 22 | 227 | 1.6 | 3.2 | 0.00 | 0.00 | 0.00 | 85 | 1017.3 |
| 20260901021524 | 22 | 238 | 1.6 | 3.2 | 0.00 | 0.00 | 0.00 | 85 | 1017.5 |
| 20260901020522 | 22 | 212 | 1.6 | 6.4 | 0.00 | 0.00 | 0.00 | 85 | 1017.5 |
| 20260901015519 | 22 | 167 | 1.6 | 3.2 | 0.00 | 0.00 | 0.00 | 85 | 1017.5 |
| 20260901014517 | 22 | 158 | 1.6 | 3.2 | 0.00 | 0.00 | 0.00 | 83 | 1017.7 |
| 20260901013614 | 22 | 114 | 1.6 | 6.4 | 0.00 | 0.00 | 0.00 | 83 | 1017.6 |
| 20260901012612 | 22 | 94 | 1.6 | 6.4 | 0.00 | 0.00 | 0.00 | 83 | 1017.6 |
| 20260901011609 | 22 | 108 | 1.6 | 3.2 | 0.00 | 0.00 | 0.00 | 83 | 1017.6 |
| 20260901010607 | 22 | 98 | 1.6 | 6.4 | 0.00 | 0.00 | 0.00 | 82 | 1017.6 |
| 20260901005604 | 22 | 96 | 3.2 | 6.4 | 0.00 | 0.00 | 0.00 | 82 | 1017.8 |
| 20260901004601 | 23 | 128 | 0.0 | 3.2 | 0.00 | 0.00 | 0.00 | 82 | 1017.8 |
| 20260901003559 | 23 | 75 | 1.6 | 3.2 | 0.00 | 0.00 | 0.00 | 82 | 1017.8 |
| 20260901002556 | 23 | 107 | 1.6 | 6.4 | 0.00 | 0.00 | 0.00 | 82 | 1017.8 |
| 20260901001554 | 23 | 135 | 1.6 | 3.2 | 0.00 | 0.00 | 0.00 | 81 | 1017.8 |
| 20260901000551 | 23 | 0.0 | 3.2 | 0.00 | 0.00 | 0.00 | 82 | 1017.9 | |
| 20260831235548 | 22 | 135 | 0.0 | 3.2 | 0.00 | 0.00 | 0.00 | 83 | 1018.0 |
| 20260831234546 | 23 | 133 | 1.6 | 3.2 | 0.00 | 0.00 | 0.00 | 85 | 1017.9 |
| 20260831233543 | 23 | 122 | 0.0 | 6.4 | 0.00 | 0.00 | 0.00 | 85 | 1017.9 |
| 20260831232541 | 23 | 192 | 1.6 | 6.4 | 0.00 | 0.00 | 0.00 | 86 | 1017.8 |
| 20260831231538 | 23 | 119 | 1.6 | 3.2 | 0.00 | 0.00 | 0.00 | 86 | 1017.7 |
| 20260831230536 | 23 | 138 | 1.6 | 6.4 | 0.00 | 0.00 | 0.00 | 86 | 1017.6 |
| 20260831225533 | 22 | 357 | 3.2 | 9.7 | 0.00 | 0.00 | 0.00 | 87 | 1017.7 |
| 20260831224530 | 23 | 28 | 4.8 | 9.7 | 0.00 | 0.00 | 0.00 | 86 | 1017.8 |
| 20260831223528 | 23 | 3 | 1.6 | 6.4 | 0.00 | 0.00 | 0.00 | 86 | 1017.7 |
| 20260831222525 | 23 | 158 | 1.6 | 6.4 | 0.00 | 0.00 | 0.00 | 86 | 1017.7 |
| 20260831221523 | 23 | 36 | 1.6 | 6.4 | 0.00 | 0.00 | 0.00 | 86 | 1017.7 |
| 20260831220520 | 23 | 145 | 1.6 | 6.4 | 0.00 | 0.00 | 0.00 | 85 | 1017.8 |
| 20260831215517 | 23 | 27 | 3.2 | 9.7 | 0.00 | 0.00 | 0.00 | 85 | 1017.7 |
| 20260831214515 | 23 | 85 | 1.6 | 6.4 | 0.00 | 0.00 | 0.00 | 84 | 1017.5 |
| 20260831213612 | 23 | 102 | 3.2 | 12.9 | 0.00 | 0.00 | 0.00 | 84 | 1017.5 |
| 20260831212610 | 23 | 117 | 3.2 | 6.4 | 0.00 | 0.00 | 0.00 | 84 | 1017.5 |
| 20260831211607 | 23 | 107 | 4.8 | 11.3 | 0.00 | 0.00 | 0.00 | 84 | 1017.4 |
| 20260831210605 | 23 | 116 | 1.6 | 6.4 | 0.00 | 0.00 | 0.00 | 82 | 1017.3 |
| 20260831205602 | 23 | 82 | 1.6 | 6.4 | 0.00 | 0.00 | 0.00 | 81 | 1017.4 |
| 20260831204559 | 23 | 146 | 1.6 | 9.7 | 0.00 | 0.00 | 0.00 | 80 | 1017.2 |
| 20260831203557 | 23 | 42 | 3.2 | 9.7 | 0.00 | 0.00 | 0.00 | 79 | 1017.3 |
| 20260831202554 | 23 | 169 | 4.8 | 12.9 | 0.00 | 0.00 | 0.00 | 77 | 1017.0 |
| 20260831201552 | 24 | 309 | 1.6 | 6.4 | 0.00 | 0.00 | 0.00 | 76 | 1017.1 |
| 20260831200549 | 24 | 80 | 3.2 | 11.3 | 0.00 | 0.00 | 0.00 | 76 | 1017.0 |
| 20260831195546 | 24 | 120 | 1.6 | 6.4 | 0.00 | 0.00 | 0.00 | 74 | 1016.9 |
| 20260831194544 | 24 | 128 | 3.2 | 6.4 | 0.00 | 0.00 | 0.00 | 75 | 1016.6 |
| 20260831193541 | 24 | 104 | 3.2 | 11.3 | 0.00 | 0.00 | 0.00 | 75 | 1016.5 |
| 20260831192539 | 24 | 112 | 4.8 | 12.9 | 0.00 | 0.00 | 0.00 | 74 | 1016.5 |
| 20260831191536 | 24 | 68 | 4.8 | 11.3 | 0.00 | 0.00 | 0.00 | 73 | 1016.0 |
| 20260831190534 | 24 | 114 | 6.4 | 14.5 | 0.00 | 0.00 | 0.00 | 73 | 1015.9 |
| 20260831185531 | 24 | 103 | 6.4 | 12.9 | 0.00 | 0.00 | 0.00 | 72 | 1016.0 |
| 20260831184528 | 25 | 103 | 3.2 | 12.9 | 0.00 | 0.00 | 0.00 | 71 | 1015.8 |
| 20260831183526 | 25 | 108 | 6.4 | 14.5 | 0.00 | 0.00 | 0.00 | 72 | 1015.7 |
| 20260831182523 | 25 | 173 | 3.2 | 9.7 | 0.00 | 0.00 | 0.00 | 71 | 1015.6 |
| 20260831181520 | 25 | 77 | 4.8 | 12.9 | 0.00 | 0.00 | 0.00 | 70 | 1015.5 |
| 20260831180518 | 25 | 116 | 4.8 | 12.9 | 0.00 | 0.00 | 0.00 | 70 | 1015.6 |
| 20260831175515 | 25 | 155 | 1.6 | 6.4 | 0.00 | 0.00 | 0.00 | 70 | 1015.5 |
| 20260831174613 | 25 | 91 | 8.0 | 20.9 | 0.00 | 0.00 | 0.00 | 71 | 1015.4 |
| 20260831173610 | 25 | 80 | 4.8 | 12.9 | 0.00 | 0.00 | 0.00 | 71 | 1015.5 |
| 20260831172608 | 26 | 115 | 4.8 | 17.7 | 0.00 | 0.00 | 0.00 | 71 | 1015.5 |
| 20260831171605 | 26 | 99 | 4.8 | 11.3 | 0.00 | 0.00 | 0.00 | 71 | 1015.4 |
| 20260831170602 | 26 | 41 | 4.8 | 14.5 | 0.00 | 0.00 | 0.00 | 72 | 1015.5 |
| 20260831165600 | 26 | 162 | 4.8 | 17.7 | 0.00 | 0.00 | 0.00 | 71 | 1015.5 |
| 20260831164557 | 26 | 142 | 6.4 | 17.7 | 0.00 | 0.00 | 0.00 | 71 | 1015.4 |
| 20260831163555 | 27 | 102 | 6.4 | 12.9 | 0.00 | 0.00 | 0.00 | 69 | 1015.5 |
| 20260831162552 | 27 | 147 | 3.2 | 14.5 | 0.00 | 0.00 | 0.00 | 70 | 1015.6 |
| 20260831161550 | 26 | 98 | 9.7 | 17.7 | 0.00 | 0.00 | 0.00 | 70 | 1015.6 |
| 20260831160547 | 26 | 135 | 8.0 | 20.9 | 0.00 | 0.00 | 0.00 | 70 | 1015.6 |
| 20260831155545 | 27 | 99 | 6.4 | 22.5 | 0.00 | 0.00 | 0.00 | 68 | 1015.7 |
| 20260831154542 | 27 | 80 | 6.4 | 20.9 | 0.00 | 0.00 | 0.00 | 67 | 1015.8 |
| 20260831153540 | 27 | 109 | 8.0 | 17.7 | 0.00 | 0.00 | 0.00 | 66 | 1015.6 |
| 20260831152537 | 28 | 119 | 4.8 | 24.1 | 0.00 | 0.00 | 0.00 | 65 | 1015.7 |
| 20260831151534 | 28 | 107 | 8.0 | 20.9 | 0.00 | 0.00 | 0.00 | 64 | 1015.6 |
| 20260831150532 | 28 | 101 | 6.4 | 17.7 | 0.00 | 0.00 | 0.00 | 64 | 1015.5 |
| 20260831145529 | 28 | 96 | 8.0 | 17.7 | 0.00 | 0.00 | 0.00 | 63 | 1015.5 |
| 20260831144527 | 28 | 138 | 8.0 | 20.9 | 0.00 | 0.00 | 0.00 | 63 | 1015.5 |
| 20260831143524 | 30 | 227 | 4.8 | 17.7 | 0.00 | 0.00 | 0.00 | 61 | 1015.4 |
| 20260831142521 | 30 | 144 | 4.8 | 14.5 | 0.00 | 0.00 | 0.00 | 61 | 1015.6 |
| 20260831141519 | 29 | 116 | 6.4 | 14.5 | 0.00 | 0.00 | 0.00 | 61 | 1015.5 |
| 20260831140516 | 30 | 161 | 4.8 | 12.9 | 0.00 | 0.00 | 0.00 | 60 | 1015.5 |
| 20260831135614 | 30 | 135 | 6.4 | 17.7 | 0.00 | 0.00 | 0.00 | 60 | 1015.4 |
| 20260831134611 | 29 | 171 | 6.4 | 17.7 | 0.00 | 0.00 | 0.00 | 61 | 1015.4 |
| 20260831133609 | 29 | 95 | 4.8 | 12.9 | 0.00 | 0.00 | 0.00 | 60 | 1015.4 |
| 20260831132606 | 28 | 113 | 4.8 | 11.3 | 0.00 | 0.00 | 0.00 | 61 | 1015.5 |
| 20260831131604 | 28 | 106 | 8.0 | 24.1 | 0.00 | 0.00 | 0.00 | 64 | 1015.5 |
| 20260831130601 | 28 | 339 | 11.3 | 17.7 | 0.00 | 0.00 | 0.00 | 63 | 1015.6 |
| 20260831125558 | 28 | 61 | 6.4 | 17.7 | 0.00 | 0.00 | 0.00 | 63 | 1015.5 |
| 20260831124556 | 28 | 22 | 11.3 | 22.5 | 0.00 | 0.00 | 0.00 | 62 | 1015.7 |
| 20260831123553 | 28 | 358 | 4.8 | 11.3 | 0.00 | 0.00 | 0.00 | 61 | 1015.7 |
| 20260831122551 | 28 | 91 | 6.4 | 14.5 | 0.00 | 0.00 | 0.00 | 60 | 1015.8 |
| 20260831121548 | 30 | 76 | 4.8 | 12.9 | 0.00 | 0.00 | 0.00 | 58 | 1015.8 |
| 20260831120545 | 29 | 163 | 4.8 | 9.7 | 0.00 | 0.00 | 0.00 | 59 | 1015.8 |
| 20260831115543 | 29 | 107 | 4.8 | 11.3 | 0.00 | 0.00 | 0.00 | 57 | 1015.9 |
| 20260831114540 | 29 | 105 | 3.2 | 14.5 | 0.00 | 0.00 | 0.00 | 55 | 1015.9 |
| 20260831113538 | 29 | 84 | 3.2 | 9.7 | 0.00 | 0.00 | 0.00 | 56 | 1015.9 |
| 20260831112535 | 29 | 107 | 6.4 | 11.3 | 0.00 | 0.00 | 0.00 | 55 | 1016.0 |
| 20260831111532 | 28 | 90 | 4.8 | 6.4 | 0.00 | 0.00 | 0.00 | 56 | 1016.1 |
| 20260831110530 | 28 | 102 | 3.2 | 6.4 | 0.00 | 0.00 | 0.00 | 56 | 1016.1 |
| 20260831105527 | 28 | 104 | 4.8 | 14.5 | 0.00 | 0.00 | 0.00 | 56 | 1016.2 |
| 20260831104525 | 28 | 134 | 3.2 | 9.7 | 0.00 | 0.00 | 0.00 | 60 | 1016.2 |
| 20260831103522 | 27 | 137 | 4.8 | 12.9 | 0.00 | 0.00 | 0.00 | 61 | 1016.2 |
| 20260831102519 | 26 | 293 | 4.8 | 6.4 | 0.00 | 0.00 | 0.00 | 63 | 1016.2 |
| 20260831101517 | 27 | 90 | 4.8 | 9.7 | 0.00 | 0.00 | 0.00 | 60 | 1016.3 |
| 20260831100614 | 27 | 128 | 0.0 | 3.2 | 0.00 | 0.00 | 0.00 | 61 | 1016.3 |
| 20260831095612 | 27 | 135 | 1.6 | 6.4 | 0.00 | 0.00 | 0.00 | 64 | 1016.2 |
| 20260831094609 | 26 | 116 | 3.2 | 9.7 | 0.00 | 0.00 | 0.00 | 65 | 1016.4 |
| 20260831093607 | 26 | 216 | 1.6 | 3.2 | 0.00 | 0.00 | 0.00 | 65 | 1016.4 |
| 20260831092604 | 26 | 125 | 4.8 | 11.3 | 0.00 | 0.00 | 0.00 | 67 | 1016.4 |
| 20260831091602 | 25 | 209 | 4.8 | 11.3 | 0.00 | 0.00 | 0.00 | 71 | 1016.3 |
| 20260831090559 | 25 | 146 | 1.6 | 6.4 | 0.00 | 0.00 | 0.00 | 70 | 1016.5 |
| 20260831085556 | 24 | 193 | 3.2 | 6.4 | 0.00 | 0.00 | 0.00 | 74 | 1016.3 |
| 20260831084554 | 24 | 141 | 6.4 | 11.3 | 0.00 | 0.00 | 0.00 | 75 | 1016.3 |
| 20260831083551 | 23 | 153 | 8.0 | 14.5 | 0.00 | 0.00 | 0.00 | 77 | 1016.2 |